sensor_id;sensor_type;location;lat;lon;timestamp;P1;durP1;ratioP1;P2;durP2;ratioP2
22363;SDS011;11349;53.412;-1.328;2023-06-14T00:01:02;11.15;;;4.47;;
22363;SDS011;11349;53.412;-1.328;2023-06-14T00:03:28;13.43;;;4.78;;
22363;SDS011;11349;53.412;-1.328;2023-06-14T00:05:54;10.13;;;4.60;;
22363;SDS011;11349;53.412;-1.328;2023-06-14T00:08:22;10.90;;;4.97;;
22363;SDS011;11349;53.412;-1.328;2023-06-14T00:10:50;9.05;;;4.20;;
22363;SDS011;11349;53.412;-1.328;2023-06-14T00:13:16;9.70;;;4.45;;
22363;SDS011;11349;53.412;-1.328;2023-06-14T00:15:42;9.27;;;4.50;;
22363;SDS011;11349;53.412;-1.328;2023-06-14T00:18:07;11.15;;;4.70;;
22363;SDS011;11349;53.412;-1.328;2023-06-14T00:20:34;14.43;;;4.50;;
22363;SDS011;11349;53.412;-1.328;2023-06-14T00:23:00;12.20;;;4.35;;
22363;SDS011;11349;53.412;-1.328;2023-06-14T00:25:26;12.18;;;4.95;;
22363;SDS011;11349;53.412;-1.328;2023-06-14T00:27:53;9.88;;;4.80;;
22363;SDS011;11349;53.412;-1.328;2023-06-14T00:30:19;8.27;;;4.32;;
22363;SDS011;11349;53.412;-1.328;2023-06-14T00:32:46;14.25;;;4.60;;
22363;SDS011;11349;53.412;-1.328;2023-06-14T00:35:14;11.50;;;4.43;;
22363;SDS011;11349;53.412;-1.328;2023-06-14T00:37:40;11.02;;;5.20;;
22363;SDS011;11349;53.412;-1.328;2023-06-14T00:40:06;11.48;;;5.18;;
22363;SDS011;11349;53.412;-1.328;2023-06-14T00:42:32;9.55;;;5.05;;
22363;SDS011;11349;53.412;-1.328;2023-06-14T00:44:59;11.98;;;5.13;;
22363;SDS011;11349;53.412;-1.328;2023-06-14T00:47:25;14.10;;;4.72;;
22363;SDS011;11349;53.412;-1.328;2023-06-14T00:49:52;13.75;;;4.70;;
22363;SDS011;11349;53.412;-1.328;2023-06-14T00:52:18;13.27;;;5.05;;
22363;SDS011;11349;53.412;-1.328;2023-06-14T00:54:45;12.65;;;5.32;;
22363;SDS011;11349;53.412;-1.328;2023-06-14T00:57:12;11.25;;;5.70;;
22363;SDS011;11349;53.412;-1.328;2023-06-14T00:59:45;12.18;;;4.95;;
22363;SDS011;11349;53.412;-1.328;2023-06-14T01:02:13;12.45;;;5.43;;
22363;SDS011;11349;53.412;-1.328;2023-06-14T01:04:43;11.52;;;5.30;;
22363;SDS011;11349;53.412;-1.328;2023-06-14T01:07:23;17.55;;;6.72;;
22363;SDS011;11349;53.412;-1.328;2023-06-14T01:15:13;13.55;;;6.85;;
22363;SDS011;11349;53.412;-1.328;2023-06-14T01:17:40;16.52;;;7.25;;
22363;SDS011;11349;53.412;-1.328;2023-06-14T01:20:11;10.95;;;6.95;;
22363;SDS011;11349;53.412;-1.328;2023-06-14T01:22:49;13.38;;;7.18;;
22363;SDS011;11349;53.412;-1.328;2023-06-14T01:25:16;16.30;;;8.35;;
22363;SDS011;11349;53.412;-1.328;2023-06-14T01:27:46;14.45;;;7.53;;
22363;SDS011;11349;53.412;-1.328;2023-06-14T01:30:13;16.67;;;8.27;;
22363;SDS011;11349;53.412;-1.328;2023-06-14T01:32:39;15.73;;;8.52;;
22363;SDS011;11349;53.412;-1.328;2023-06-14T01:35:09;12.77;;;7.20;;
22363;SDS011;11349;53.412;-1.328;2023-06-14T01:37:34;12.57;;;7.53;;
22363;SDS011;11349;53.412;-1.328;2023-06-14T01:40:02;17.05;;;8.00;;
22363;SDS011;11349;53.412;-1.328;2023-06-14T01:42:31;12.43;;;7.82;;
22363;SDS011;11349;53.412;-1.328;2023-06-14T01:45:02;18.65;;;8.10;;
22363;SDS011;11349;53.412;-1.328;2023-06-14T01:47:30;12.95;;;7.90;;
22363;SDS011;11349;53.412;-1.328;2023-06-14T01:49:56;12.38;;;7.60;;
22363;SDS011;11349;53.412;-1.328;2023-06-14T01:52:22;15.88;;;7.40;;
22363;SDS011;11349;53.412;-1.328;2023-06-14T01:54:49;14.07;;;7.97;;
22363;SDS011;11349;53.412;-1.328;2023-06-14T01:57:15;14.07;;;6.93;;
22363;SDS011;11349;53.412;-1.328;2023-06-14T01:59:41;18.00;;;8.35;;
22363;SDS011;11349;53.412;-1.328;2023-06-14T02:02:07;11.73;;;7.53;;
22363;SDS011;11349;53.412;-1.328;2023-06-14T02:04:33;16.00;;;7.78;;
22363;SDS011;11349;53.412;-1.328;2023-06-14T02:06:59;16.55;;;8.38;;
22363;SDS011;11349;53.412;-1.328;2023-06-14T02:09:25;12.18;;;8.15;;
22363;SDS011;11349;53.412;-1.328;2023-06-14T02:11:51;15.05;;;8.00;;
22363;SDS011;11349;53.412;-1.328;2023-06-14T02:14:17;17.55;;;7.25;;
22363;SDS011;11349;53.412;-1.328;2023-06-14T02:16:43;18.58;;;7.80;;
22363;SDS011;11349;53.412;-1.328;2023-06-14T02:19:17;14.82;;;8.48;;
22363;SDS011;11349;53.412;-1.328;2023-06-14T02:21:44;17.80;;;8.20;;
22363;SDS011;11349;53.412;-1.328;2023-06-14T02:24:09;14.68;;;7.93;;
22363;SDS011;11349;53.412;-1.328;2023-06-14T02:26:36;13.30;;;7.28;;
22363;SDS011;11349;53.412;-1.328;2023-06-14T02:29:08;16.77;;;7.32;;
22363;SDS011;11349;53.412;-1.328;2023-06-14T02:31:36;14.43;;;7.88;;
22363;SDS011;11349;53.412;-1.328;2023-06-14T02:34:02;16.10;;;7.63;;
22363;SDS011;11349;53.412;-1.328;2023-06-14T02:36:27;19.40;;;8.25;;
22363;SDS011;11349;53.412;-1.328;2023-06-14T02:38:56;13.25;;;7.53;;
22363;SDS011;11349;53.412;-1.328;2023-06-14T02:41:25;12.52;;;6.75;;
22363;SDS011;11349;53.412;-1.328;2023-06-14T02:43:52;13.35;;;7.63;;
22363;SDS011;11349;53.412;-1.328;2023-06-14T02:46:18;13.13;;;8.02;;
22363;SDS011;11349;53.412;-1.328;2023-06-14T02:48:43;15.68;;;7.45;;
22363;SDS011;11349;53.412;-1.328;2023-06-14T02:51:10;14.90;;;7.88;;
22363;SDS011;11349;53.412;-1.328;2023-06-14T02:53:37;12.60;;;7.38;;
22363;SDS011;11349;53.412;-1.328;2023-06-14T02:56:03;15.45;;;7.90;;
22363;SDS011;11349;53.412;-1.328;2023-06-14T02:58:31;16.88;;;7.90;;
22363;SDS011;11349;53.412;-1.328;2023-06-14T03:00:58;12.07;;;7.10;;
22363;SDS011;11349;53.412;-1.328;2023-06-14T03:03:27;11.60;;;7.38;;
22363;SDS011;11349;53.412;-1.328;2023-06-14T03:05:53;12.10;;;7.22;;
22363;SDS011;11349;53.412;-1.328;2023-06-14T03:08:19;14.07;;;7.43;;
22363;SDS011;11349;53.412;-1.328;2023-06-14T03:10:46;16.55;;;7.75;;
22363;SDS011;11349;53.412;-1.328;2023-06-14T03:13:12;18.08;;;7.50;;
22363;SDS011;11349;53.412;-1.328;2023-06-14T03:15:38;19.98;;;8.07;;
22363;SDS011;11349;53.412;-1.328;2023-06-14T03:18:07;15.80;;;8.68;;
22363;SDS011;11349;53.412;-1.328;2023-06-14T03:20:34;14.93;;;8.40;;
22363;SDS011;11349;53.412;-1.328;2023-06-14T03:23:01;13.52;;;8.25;;
22363;SDS011;11349;53.412;-1.328;2023-06-14T03:25:28;14.20;;;7.03;;
22363;SDS011;11349;53.412;-1.328;2023-06-14T03:27:57;19.10;;;8.38;;
22363;SDS011;11349;53.412;-1.328;2023-06-14T03:30:23;15.95;;;7.38;;
22363;SDS011;11349;53.412;-1.328;2023-06-14T03:32:49;14.43;;;7.50;;
22363;SDS011;11349;53.412;-1.328;2023-06-14T03:35:17;13.90;;;7.25;;
22363;SDS011;11349;53.412;-1.328;2023-06-14T03:37:43;15.65;;;7.40;;
22363;SDS011;11349;53.412;-1.328;2023-06-14T03:40:10;18.75;;;7.95;;
22363;SDS011;11349;53.412;-1.328;2023-06-14T03:42:36;12.57;;;7.55;;
22363;SDS011;11349;53.412;-1.328;2023-06-14T03:45:02;13.20;;;8.13;;
22363;SDS011;11349;53.412;-1.328;2023-06-14T03:47:28;13.23;;;7.88;;
22363;SDS011;11349;53.412;-1.328;2023-06-14T03:49:53;13.55;;;7.47;;
22363;SDS011;11349;53.412;-1.328;2023-06-14T03:52:19;14.90;;;8.13;;
22363;SDS011;11349;53.412;-1.328;2023-06-14T03:54:47;14.50;;;7.53;;
22363;SDS011;11349;53.412;-1.328;2023-06-14T03:57:13;13.25;;;7.35;;
22363;SDS011;11349;53.412;-1.328;2023-06-14T03:59:38;17.52;;;9.10;;
22363;SDS011;11349;53.412;-1.328;2023-06-14T04:02:04;16.63;;;8.13;;
22363;SDS011;11349;53.412;-1.328;2023-06-14T04:04:30;13.18;;;8.00;;
22363;SDS011;11349;53.412;-1.328;2023-06-14T04:06:56;14.02;;;8.65;;
22363;SDS011;11349;53.412;-1.328;2023-06-14T04:09:23;18.98;;;10.05;;
22363;SDS011;11349;53.412;-1.328;2023-06-14T04:11:52;14.50;;;8.73;;
22363;SDS011;11349;53.412;-1.328;2023-06-14T04:14:19;16.23;;;8.57;;
22363;SDS011;11349;53.412;-1.328;2023-06-14T04:16:45;15.75;;;8.82;;
22363;SDS011;11349;53.412;-1.328;2023-06-14T04:19:12;13.93;;;7.88;;
22363;SDS011;11349;53.412;-1.328;2023-06-14T04:21:37;12.38;;;7.47;;
22363;SDS011;11349;53.412;-1.328;2023-06-14T04:24:03;13.32;;;6.55;;
22363;SDS011;11349;53.412;-1.328;2023-06-14T04:26:29;12.48;;;7.40;;
22363;SDS011;11349;53.412;-1.328;2023-06-14T04:29:01;11.23;;;6.40;;
22363;SDS011;11349;53.412;-1.328;2023-06-14T04:31:28;13.02;;;6.88;;
22363;SDS011;11349;53.412;-1.328;2023-06-14T04:33:55;16.52;;;7.57;;
22363;SDS011;11349;53.412;-1.328;2023-06-14T04:36:21;12.48;;;6.75;;
22363;SDS011;11349;53.412;-1.328;2023-06-14T04:38:47;13.20;;;7.03;;
22363;SDS011;11349;53.412;-1.328;2023-06-14T04:41:14;12.20;;;7.18;;
22363;SDS011;11349;53.412;-1.328;2023-06-14T04:43:41;15.05;;;7.35;;
22363;SDS011;11349;53.412;-1.328;2023-06-14T04:46:07;12.32;;;7.05;;
22363;SDS011;11349;53.412;-1.328;2023-06-14T04:48:39;12.20;;;6.90;;
22363;SDS011;11349;53.412;-1.328;2023-06-14T04:51:10;13.05;;;6.65;;
22363;SDS011;11349;53.412;-1.328;2023-06-14T04:53:36;13.10;;;7.20;;
22363;SDS011;11349;53.412;-1.328;2023-06-14T04:56:02;11.82;;;6.65;;
22363;SDS011;11349;53.412;-1.328;2023-06-14T04:58:29;13.50;;;6.78;;
22363;SDS011;11349;53.412;-1.328;2023-06-14T05:00:55;13.63;;;6.90;;
22363;SDS011;11349;53.412;-1.328;2023-06-14T05:03:24;16.08;;;6.22;;
22363;SDS011;11349;53.412;-1.328;2023-06-14T05:05:50;13.55;;;6.32;;
22363;SDS011;11349;53.412;-1.328;2023-06-14T05:08:18;11.63;;;6.47;;
22363;SDS011;11349;53.412;-1.328;2023-06-14T05:10:45;15.95;;;7.03;;
22363;SDS011;11349;53.412;-1.328;2023-06-14T05:13:11;11.23;;;6.38;;
22363;SDS011;11349;53.412;-1.328;2023-06-14T05:15:37;16.08;;;7.10;;
22363;SDS011;11349;53.412;-1.328;2023-06-14T05:18:02;12.73;;;5.88;;
22363;SDS011;11349;53.412;-1.328;2023-06-14T05:20:28;14.02;;;7.18;;
22363;SDS011;11349;53.412;-1.328;2023-06-14T05:22:54;10.93;;;5.55;;
22363;SDS011;11349;53.412;-1.328;2023-06-14T05:25:20;11.45;;;5.97;;
22363;SDS011;11349;53.412;-1.328;2023-06-14T05:27:46;14.18;;;6.18;;
22363;SDS011;11349;53.412;-1.328;2023-06-14T05:30:13;9.20;;;5.65;;
22363;SDS011;11349;53.412;-1.328;2023-06-14T05:32:40;8.85;;;5.50;;
22363;SDS011;11349;53.412;-1.328;2023-06-14T05:35:05;14.95;;;6.10;;
22363;SDS011;11349;53.412;-1.328;2023-06-14T05:37:32;17.05;;;6.10;;
22363;SDS011;11349;53.412;-1.328;2023-06-14T05:39:57;8.75;;;5.00;;
22363;SDS011;11349;53.412;-1.328;2023-06-14T05:42:23;12.18;;;5.70;;
22363;SDS011;11349;53.412;-1.328;2023-06-14T05:44:49;13.27;;;5.15;;
22363;SDS011;11349;53.412;-1.328;2023-06-14T05:47:14;9.82;;;5.20;;
22363;SDS011;11349;53.412;-1.328;2023-06-14T05:49:40;15.70;;;5.60;;
22363;SDS011;11349;53.412;-1.328;2023-06-14T05:52:06;13.98;;;6.68;;
22363;SDS011;11349;53.412;-1.328;2023-06-14T05:54:32;12.45;;;6.68;;
22363;SDS011;11349;53.412;-1.328;2023-06-14T05:56:58;9.82;;;5.15;;
22363;SDS011;11349;53.412;-1.328;2023-06-14T05:59:26;12.73;;;5.22;;
22363;SDS011;11349;53.412;-1.328;2023-06-14T06:01:52;8.93;;;5.20;;
22363;SDS011;11349;53.412;-1.328;2023-06-14T06:04:18;8.20;;;5.10;;
22363;SDS011;11349;53.412;-1.328;2023-06-14T06:06:45;9.93;;;5.07;;
22363;SDS011;11349;53.412;-1.328;2023-06-14T06:09:11;9.70;;;5.35;;
22363;SDS011;11349;53.412;-1.328;2023-06-14T06:11:39;10.43;;;5.20;;
22363;SDS011;11349;53.412;-1.328;2023-06-14T06:14:05;13.05;;;5.85;;
22363;SDS011;11349;53.412;-1.328;2023-06-14T06:16:31;9.10;;;4.53;;
22363;SDS011;11349;53.412;-1.328;2023-06-14T06:18:57;10.20;;;4.65;;
22363;SDS011;11349;53.412;-1.328;2023-06-14T06:21:22;8.27;;;4.88;;
22363;SDS011;11349;53.412;-1.328;2023-06-14T06:23:48;10.18;;;4.80;;
22363;SDS011;11349;53.412;-1.328;2023-06-14T06:26:14;9.25;;;4.53;;
22363;SDS011;11349;53.412;-1.328;2023-06-14T06:28:40;7.93;;;4.25;;
22363;SDS011;11349;53.412;-1.328;2023-06-14T06:31:06;9.40;;;4.43;;
22363;SDS011;11349;53.412;-1.328;2023-06-14T06:33:31;10.30;;;4.32;;
22363;SDS011;11349;53.412;-1.328;2023-06-14T06:35:57;11.25;;;4.47;;
22363;SDS011;11349;53.412;-1.328;2023-06-14T06:38:23;8.55;;;3.88;;
22363;SDS011;11349;53.412;-1.328;2023-06-14T06:40:48;7.43;;;3.83;;
22363;SDS011;11349;53.412;-1.328;2023-06-14T06:43:14;7.85;;;3.75;;
22363;SDS011;11349;53.412;-1.328;2023-06-14T06:45:42;7.32;;;3.35;;
22363;SDS011;11349;53.412;-1.328;2023-06-14T06:48:07;8.20;;;3.72;;
22363;SDS011;11349;53.412;-1.328;2023-06-14T06:50:35;7.45;;;3.42;;
22363;SDS011;11349;53.412;-1.328;2023-06-14T06:53:01;6.63;;;3.03;;
22363;SDS011;11349;53.412;-1.328;2023-06-14T06:55:27;8.38;;;3.70;;
22363;SDS011;11349;53.412;-1.328;2023-06-14T06:57:53;6.15;;;3.40;;
22363;SDS011;11349;53.412;-1.328;2023-06-14T07:00:19;6.60;;;3.58;;
22363;SDS011;11349;53.412;-1.328;2023-06-14T07:02:45;8.65;;;3.05;;
22363;SDS011;11349;53.412;-1.328;2023-06-14T07:05:12;7.18;;;3.10;;
22363;SDS011;11349;53.412;-1.328;2023-06-14T07:07:37;10.45;;;4.00;;
22363;SDS011;11349;53.412;-1.328;2023-06-14T07:10:04;6.78;;;3.13;;
22363;SDS011;11349;53.412;-1.328;2023-06-14T07:12:33;7.90;;;3.50;;
22363;SDS011;11349;53.412;-1.328;2023-06-14T07:15:04;8.07;;;3.00;;
22363;SDS011;11349;53.412;-1.328;2023-06-14T07:17:31;7.00;;;3.35;;
22363;SDS011;11349;53.412;-1.328;2023-06-14T07:19:57;11.50;;;3.40;;
22363;SDS011;11349;53.412;-1.328;2023-06-14T07:22:23;7.60;;;3.30;;
22363;SDS011;11349;53.412;-1.328;2023-06-14T07:24:48;9.52;;;3.03;;
22363;SDS011;11349;53.412;-1.328;2023-06-14T07:27:14;7.60;;;2.97;;
22363;SDS011;11349;53.412;-1.328;2023-06-14T07:29:40;9.27;;;2.60;;
22363;SDS011;11349;53.412;-1.328;2023-06-14T07:32:06;6.80;;;2.65;;
22363;SDS011;11349;53.412;-1.328;2023-06-14T07:34:32;7.57;;;2.92;;
22363;SDS011;11349;53.412;-1.328;2023-06-14T07:36:57;7.32;;;3.60;;
22363;SDS011;11349;53.412;-1.328;2023-06-14T07:39:23;7.50;;;3.35;;
22363;SDS011;11349;53.412;-1.328;2023-06-14T07:41:49;8.18;;;2.85;;
22363;SDS011;11349;53.412;-1.328;2023-06-14T07:44:15;9.40;;;3.13;;
22363;SDS011;11349;53.412;-1.328;2023-06-14T07:46:41;8.25;;;3.30;;
22363;SDS011;11349;53.412;-1.328;2023-06-14T07:49:07;7.35;;;3.10;;
22363;SDS011;11349;53.412;-1.328;2023-06-14T07:51:32;8.20;;;3.47;;
22363;SDS011;11349;53.412;-1.328;2023-06-14T07:53:59;7.28;;;3.30;;
22363;SDS011;11349;53.412;-1.328;2023-06-14T07:56:28;9.52;;;3.13;;
22363;SDS011;11349;53.412;-1.328;2023-06-14T07:58:54;11.13;;;2.92;;
22363;SDS011;11349;53.412;-1.328;2023-06-14T08:01:19;10.13;;;2.90;;
22363;SDS011;11349;53.412;-1.328;2023-06-14T08:03:45;9.93;;;3.35;;
22363;SDS011;11349;53.412;-1.328;2023-06-14T08:06:11;7.97;;;2.75;;
22363;SDS011;11349;53.412;-1.328;2023-06-14T08:08:37;8.98;;;3.00;;
22363;SDS011;11349;53.412;-1.328;2023-06-14T08:11:02;10.02;;;3.15;;
22363;SDS011;11349;53.412;-1.328;2023-06-14T08:13:28;9.35;;;2.90;;
22363;SDS011;11349;53.412;-1.328;2023-06-14T08:15:54;7.78;;;3.08;;
22363;SDS011;11349;53.412;-1.328;2023-06-14T08:18:22;8.27;;;2.40;;
22363;SDS011;11349;53.412;-1.328;2023-06-14T08:20:47;8.70;;;3.13;;
22363;SDS011;11349;53.412;-1.328;2023-06-14T08:23:13;10.02;;;3.03;;
22363;SDS011;11349;53.412;-1.328;2023-06-14T08:25:39;7.90;;;2.63;;
22363;SDS011;11349;53.412;-1.328;2023-06-14T08:28:05;9.90;;;2.83;;
22363;SDS011;11349;53.412;-1.328;2023-06-14T08:30:31;7.00;;;3.15;;
22363;SDS011;11349;53.412;-1.328;2023-06-14T08:32:57;9.60;;;3.50;;
22363;SDS011;11349;53.412;-1.328;2023-06-14T08:35:22;10.05;;;2.72;;
22363;SDS011;11349;53.412;-1.328;2023-06-14T08:37:49;13.35;;;3.78;;
22363;SDS011;11349;53.412;-1.328;2023-06-14T08:40:19;11.05;;;3.30;;
22363;SDS011;11349;53.412;-1.328;2023-06-14T08:42:50;9.40;;;2.70;;
22363;SDS011;11349;53.412;-1.328;2023-06-14T08:45:22;10.50;;;3.70;;
22363;SDS011;11349;53.412;-1.328;2023-06-14T08:47:52;10.18;;;2.95;;
22363;SDS011;11349;53.412;-1.328;2023-06-14T08:50:22;14.18;;;3.22;;
22363;SDS011;11349;53.412;-1.328;2023-06-14T08:52:55;9.70;;;3.58;;
22363;SDS011;11349;53.412;-1.328;2023-06-14T08:55:30;8.95;;;3.15;;
22363;SDS011;11349;53.412;-1.328;2023-06-14T08:57:58;11.25;;;3.40;;
22363;SDS011;11349;53.412;-1.328;2023-06-14T09:00:24;11.90;;;3.15;;
22363;SDS011;11349;53.412;-1.328;2023-06-14T09:02:51;13.57;;;3.78;;
22363;SDS011;11349;53.412;-1.328;2023-06-14T09:05:22;15.70;;;3.20;;
22363;SDS011;11349;53.412;-1.328;2023-06-14T09:07:49;9.55;;;3.80;;
22363;SDS011;11349;53.412;-1.328;2023-06-14T09:10:15;14.68;;;4.10;;
22363;SDS011;11349;53.412;-1.328;2023-06-14T09:12:42;15.23;;;3.78;;
22363;SDS011;11349;53.412;-1.328;2023-06-14T09:15:08;11.35;;;3.55;;
22363;SDS011;11349;53.412;-1.328;2023-06-14T09:17:35;10.07;;;3.30;;
22363;SDS011;11349;53.412;-1.328;2023-06-14T09:20:05;11.13;;;3.00;;
22363;SDS011;11349;53.412;-1.328;2023-06-14T09:22:33;12.73;;;3.90;;
22363;SDS011;11349;53.412;-1.328;2023-06-14T09:24:59;12.90;;;3.20;;
22363;SDS011;11349;53.412;-1.328;2023-06-14T09:27:25;9.32;;;3.25;;
22363;SDS011;11349;53.412;-1.328;2023-06-14T09:29:54;11.15;;;3.00;;
22363;SDS011;11349;53.412;-1.328;2023-06-14T09:32:20;11.02;;;3.42;;
22363;SDS011;11349;53.412;-1.328;2023-06-14T09:34:46;6.68;;;2.63;;
22363;SDS011;11349;53.412;-1.328;2023-06-14T09:37:12;9.73;;;2.50;;
22363;SDS011;11349;53.412;-1.328;2023-06-14T09:39:51;8.57;;;2.40;;
22363;SDS011;11349;53.412;-1.328;2023-06-14T09:42:17;5.35;;;2.67;;
22363;SDS011;11349;53.412;-1.328;2023-06-14T09:44:45;9.15;;;2.55;;
22363;SDS011;11349;53.412;-1.328;2023-06-14T09:47:13;7.10;;;2.83;;
22363;SDS011;11349;53.412;-1.328;2023-06-14T09:49:40;7.38;;;2.20;;
22363;SDS011;11349;53.412;-1.328;2023-06-14T09:52:06;8.23;;;2.25;;
22363;SDS011;11349;53.412;-1.328;2023-06-14T09:54:35;9.13;;;2.22;;
22363;SDS011;11349;53.412;-1.328;2023-06-14T09:57:07;5.25;;;2.17;;
22363;SDS011;11349;53.412;-1.328;2023-06-14T09:59:40;8.02;;;2.58;;
22363;SDS011;11349;53.412;-1.328;2023-06-14T10:04:45;7.28;;;2.47;;
22363;SDS011;11349;53.412;-1.328;2023-06-14T10:07:17;9.63;;;2.30;;
22363;SDS011;11349;53.412;-1.328;2023-06-14T10:09:45;11.40;;;2.42;;
22363;SDS011;11349;53.412;-1.328;2023-06-14T10:12:17;9.13;;;2.28;;
22363;SDS011;11349;53.412;-1.328;2023-06-14T10:14:49;7.90;;;2.40;;
22363;SDS011;11349;53.412;-1.328;2023-06-14T10:17:26;6.95;;;2.70;;
22363;SDS011;11349;53.412;-1.328;2023-06-14T10:19:57;10.68;;;2.25;;
22363;SDS011;11349;53.412;-1.328;2023-06-14T10:22:58;6.47;;;2.42;;
22363;SDS011;11349;53.412;-1.328;2023-06-14T10:25:29;8.38;;;2.70;;
22363;SDS011;11349;53.412;-1.328;2023-06-14T10:31:11;9.90;;;3.00;;
22363;SDS011;11349;53.412;-1.328;2023-06-14T10:33:39;9.85;;;2.08;;
22363;SDS011;11349;53.412;-1.328;2023-06-14T10:39:38;6.30;;;2.50;;
22363;SDS011;11349;53.412;-1.328;2023-06-14T10:41:50;6.13;;;2.15;;
22363;SDS011;11349;53.412;-1.328;2023-06-14T10:46:49;7.38;;;2.28;;
22363;SDS011;11349;53.412;-1.328;2023-06-14T10:49:17;5.43;;;1.70;;
22363;SDS011;11349;53.412;-1.328;2023-06-14T10:51:44;9.07;;;2.28;;
22363;SDS011;11349;53.412;-1.328;2023-06-14T10:54:22;6.55;;;2.15;;
22363;SDS011;11349;53.412;-1.328;2023-06-14T10:56:49;4.32;;;1.90;;
22363;SDS011;11349;53.412;-1.328;2023-06-14T10:59:16;5.38;;;2.20;;
22363;SDS011;11349;53.412;-1.328;2023-06-14T11:05:03;9.07;;;2.30;;
22363;SDS011;11349;53.412;-1.328;2023-06-14T11:12:54;7.95;;;2.05;;
22363;SDS011;11349;53.412;-1.328;2023-06-14T11:15:22;9.05;;;2.50;;
22363;SDS011;11349;53.412;-1.328;2023-06-14T11:17:53;6.03;;;1.83;;
22363;SDS011;11349;53.412;-1.328;2023-06-14T11:20:24;7.13;;;2.38;;
22363;SDS011;11349;53.412;-1.328;2023-06-14T11:22:51;11.20;;;2.80;;
22363;SDS011;11349;53.412;-1.328;2023-06-14T11:25:17;5.03;;;2.00;;
22363;SDS011;11349;53.412;-1.328;2023-06-14T11:27:43;7.45;;;2.50;;
22363;SDS011;11349;53.412;-1.328;2023-06-14T11:30:10;8.20;;;2.50;;
22363;SDS011;11349;53.412;-1.328;2023-06-14T11:32:36;6.18;;;2.05;;
22363;SDS011;11349;53.412;-1.328;2023-06-14T11:35:03;6.22;;;2.58;;
22363;SDS011;11349;53.412;-1.328;2023-06-14T11:37:30;6.28;;;3.28;;
22363;SDS011;11349;53.412;-1.328;2023-06-14T11:39:58;7.00;;;2.33;;
22363;SDS011;11349;53.412;-1.328;2023-06-14T11:42:24;10.73;;;2.60;;
22363;SDS011;11349;53.412;-1.328;2023-06-14T11:44:53;7.03;;;2.65;;
22363;SDS011;11349;53.412;-1.328;2023-06-14T11:47:20;5.85;;;2.33;;
22363;SDS011;11349;53.412;-1.328;2023-06-14T11:49:46;6.18;;;2.00;;
22363;SDS011;11349;53.412;-1.328;2023-06-14T11:52:14;9.40;;;2.47;;
22363;SDS011;11349;53.412;-1.328;2023-06-14T11:54:40;7.10;;;2.35;;
22363;SDS011;11349;53.412;-1.328;2023-06-14T11:57:07;7.05;;;2.78;;
22363;SDS011;11349;53.412;-1.328;2023-06-14T11:59:39;5.20;;;2.22;;
22363;SDS011;11349;53.412;-1.328;2023-06-14T12:02:05;7.97;;;2.42;;
22363;SDS011;11349;53.412;-1.328;2023-06-14T12:04:32;6.50;;;2.50;;
22363;SDS011;11349;53.412;-1.328;2023-06-14T12:07:08;4.80;;;2.10;;
22363;SDS011;11349;53.412;-1.328;2023-06-14T12:09:40;7.72;;;2.75;;
22363;SDS011;11349;53.412;-1.328;2023-06-14T12:12:09;9.10;;;2.17;;
22363;SDS011;11349;53.412;-1.328;2023-06-14T12:14:35;7.10;;;1.90;;
22363;SDS011;11349;53.412;-1.328;2023-06-14T12:17:07;7.05;;;2.70;;
22363;SDS011;11349;53.412;-1.328;2023-06-14T12:19:33;10.93;;;2.50;;
22363;SDS011;11349;53.412;-1.328;2023-06-14T12:22:10;6.00;;;2.53;;
22363;SDS011;11349;53.412;-1.328;2023-06-14T12:24:36;7.82;;;2.30;;
22363;SDS011;11349;53.412;-1.328;2023-06-14T12:27:03;5.13;;;2.42;;
22363;SDS011;11349;53.412;-1.328;2023-06-14T12:29:32;6.82;;;2.55;;
22363;SDS011;11349;53.412;-1.328;2023-06-14T12:31:58;8.38;;;2.90;;
22363;SDS011;11349;53.412;-1.328;2023-06-14T12:34:24;5.50;;;2.67;;
22363;SDS011;11349;53.412;-1.328;2023-06-14T12:36:52;6.97;;;2.20;;
22363;SDS011;11349;53.412;-1.328;2023-06-14T12:39:18;7.35;;;2.30;;
22363;SDS011;11349;53.412;-1.328;2023-06-14T12:41:44;6.47;;;2.33;;
22363;SDS011;11349;53.412;-1.328;2023-06-14T12:44:10;9.90;;;2.72;;
22363;SDS011;11349;53.412;-1.328;2023-06-14T12:46:37;8.13;;;2.45;;
22363;SDS011;11349;53.412;-1.328;2023-06-14T12:49:04;6.53;;;2.10;;
22363;SDS011;11349;53.412;-1.328;2023-06-14T12:51:31;8.57;;;2.55;;
22363;SDS011;11349;53.412;-1.328;2023-06-14T12:53:57;8.75;;;2.33;;
22363;SDS011;11349;53.412;-1.328;2023-06-14T12:56:23;7.57;;;2.83;;
22363;SDS011;11349;53.412;-1.328;2023-06-14T12:58:49;9.70;;;2.17;;
22363;SDS011;11349;53.412;-1.328;2023-06-14T13:01:14;6.93;;;2.63;;
22363;SDS011;11349;53.412;-1.328;2023-06-14T13:03:40;6.43;;;2.40;;
22363;SDS011;11349;53.412;-1.328;2023-06-14T13:06:06;7.00;;;2.30;;
22363;SDS011;11349;53.412;-1.328;2023-06-14T13:08:31;5.60;;;2.38;;
22363;SDS011;11349;53.412;-1.328;2023-06-14T13:10:57;4.85;;;1.73;;
22363;SDS011;11349;53.412;-1.328;2023-06-14T13:13:23;5.47;;;2.10;;
22363;SDS011;11349;53.412;-1.328;2023-06-14T13:15:49;5.88;;;2.10;;
22363;SDS011;11349;53.412;-1.328;2023-06-14T13:18:15;5.65;;;2.10;;
22363;SDS011;11349;53.412;-1.328;2023-06-14T13:20:41;6.80;;;2.15;;
22363;SDS011;11349;53.412;-1.328;2023-06-14T13:23:07;5.05;;;1.90;;
22363;SDS011;11349;53.412;-1.328;2023-06-14T13:25:35;3.60;;;2.10;;
22363;SDS011;11349;53.412;-1.328;2023-06-14T13:28:01;5.32;;;2.58;;
22363;SDS011;11349;53.412;-1.328;2023-06-14T13:30:27;6.53;;;2.15;;
22363;SDS011;11349;53.412;-1.328;2023-06-14T13:32:53;5.28;;;1.83;;
22363;SDS011;11349;53.412;-1.328;2023-06-14T13:35:19;4.28;;;1.65;;
22363;SDS011;11349;53.412;-1.328;2023-06-14T13:37:45;7.18;;;2.33;;
22363;SDS011;11349;53.412;-1.328;2023-06-14T13:40:10;6.10;;;2.47;;
22363;SDS011;11349;53.412;-1.328;2023-06-14T13:42:37;7.10;;;1.70;;
22363;SDS011;11349;53.412;-1.328;2023-06-14T13:45:03;5.10;;;1.70;;
22363;SDS011;11349;53.412;-1.328;2023-06-14T13:47:30;4.70;;;2.15;;
22363;SDS011;11349;53.412;-1.328;2023-06-14T13:49:57;7.72;;;1.80;;
22363;SDS011;11349;53.412;-1.328;2023-06-14T13:52:23;7.68;;;2.10;;
22363;SDS011;11349;53.412;-1.328;2023-06-14T13:54:49;6.95;;;2.42;;
22363;SDS011;11349;53.412;-1.328;2023-06-14T13:57:15;7.63;;;2.63;;
22363;SDS011;11349;53.412;-1.328;2023-06-14T13:59:41;4.78;;;2.15;;
22363;SDS011;11349;53.412;-1.328;2023-06-14T14:02:09;5.60;;;1.80;;
22363;SDS011;11349;53.412;-1.328;2023-06-14T14:04:35;5.03;;;1.45;;
22363;SDS011;11349;53.412;-1.328;2023-06-14T14:07:02;6.88;;;2.33;;
22363;SDS011;11349;53.412;-1.328;2023-06-14T14:09:28;7.68;;;1.98;;
22363;SDS011;11349;53.412;-1.328;2023-06-14T14:11:54;8.55;;;2.15;;
22363;SDS011;11349;53.412;-1.328;2023-06-14T14:14:20;7.30;;;2.00;;
22363;SDS011;11349;53.412;-1.328;2023-06-14T14:16:46;8.10;;;1.52;;
22363;SDS011;11349;53.412;-1.328;2023-06-14T14:19:12;4.13;;;1.45;;
22363;SDS011;11349;53.412;-1.328;2023-06-14T14:21:37;4.45;;;2.00;;
22363;SDS011;11349;53.412;-1.328;2023-06-14T14:24:03;7.00;;;2.05;;
22363;SDS011;11349;53.412;-1.328;2023-06-14T14:26:30;4.40;;;1.60;;
22363;SDS011;11349;53.412;-1.328;2023-06-14T14:28:55;4.60;;;1.58;;
22363;SDS011;11349;53.412;-1.328;2023-06-14T14:31:21;4.82;;;1.80;;
22363;SDS011;11349;53.412;-1.328;2023-06-14T14:33:47;6.53;;;1.60;;
22363;SDS011;11349;53.412;-1.328;2023-06-14T14:36:12;5.68;;;1.90;;
22363;SDS011;11349;53.412;-1.328;2023-06-14T14:38:38;7.75;;;1.58;;
22363;SDS011;11349;53.412;-1.328;2023-06-14T14:41:04;3.92;;;2.00;;
22363;SDS011;11349;53.412;-1.328;2023-06-14T14:43:30;8.52;;;1.75;;
22363;SDS011;11349;53.412;-1.328;2023-06-14T14:45:57;5.18;;;1.50;;
22363;SDS011;11349;53.412;-1.328;2023-06-14T14:48:23;4.43;;;1.75;;
22363;SDS011;11349;53.412;-1.328;2023-06-14T14:50:48;7.47;;;1.70;;
22363;SDS011;11349;53.412;-1.328;2023-06-14T14:53:14;4.80;;;1.60;;